GIA88 EHAM-WIII
Flight info
| Callsign | GIA88 |
|---|---|
| Flight time | N/A |
| Altitude | 31000 |
| Route | ARNEM L620 BIRKA Z21 OMELO DCT EVIKU DCT ODNEM DCT ERGOM DCT DEGET DCT RIXEN UL605 YAVRU UL615 ENFOR/N0490F330 UL615 ERZ UT309 VIRAN UW27 KAR UT165 REBLO M11 LUSAL N199 RASAM L88 METKA B143 KRS B701 TUGTA A909 BABUM A477 AKRAM R226 MANAT/K0917F330 Z777 INDUD M875 AMDAR/N0496F330 M875 KHOLM DCT 3532N06818E 3425N06902E 3403N06952E DCT LAJAK L509 HANGU/N0492F350 J139 NONIB L509 INDEK J121 AKBER T400 SULOM L509 ASARI J24 DPN L759 KKJ W138 RRP W66 VVZ L301 DOGEM L510 AGEGA/N0494F370 L510 GIVAL P628 VPL W531 VIH A464 VKL Y507 MAKNA Y511 TOPOR A464 ARAMA P501 POSOG B469 BIDAK |
| Aircraft | B77W/H-SDE1E2E3FGHIJ2J3J4J5M1RWXY/LB1D1 |
Departure
| Time | 2026-05-08 08:13 |
|---|---|
| Airport | Amsterdam Airport Schiphol (EHAM) |
Arrival
| Time | N/A |
|---|---|
| Airport | Soekarno-Hatta International Airport (WIII) |
| Time | Latitude | Longitude | Altitude | Speed | Heading |
|---|---|---|---|---|---|
| 2026-05-08 07:38 | 52.31201 | 4.76093 | 4 ft | 0 kts | 88° |
| 2026-05-08 08:01 | 52.31200 | 4.76057 | 3 ft | 4 kts | 86° |
| 2026-05-08 08:01 | 52.31198 | 4.76019 | 3 ft | 4 kts | 89° |
| 2026-05-08 08:01 | 52.31200 | 4.75978 | 5 ft | 4 kts | 109° |
| 2026-05-08 08:01 | 52.31207 | 4.75954 | 7 ft | 4 kts | 151° |
| 2026-05-08 08:02 | 52.31227 | 4.75940 | 6 ft | 4 kts | 171° |
| 2026-05-08 08:02 | 52.31253 | 4.75937 | 6 ft | 3 kts | 177° |
| 2026-05-08 08:02 | 52.31275 | 4.75936 | 6 ft | 4 kts | 177° |
| 2026-05-08 08:02 | 52.31302 | 4.75933 | 6 ft | 4 kts | 177° |
| 2026-05-08 08:03 | 52.31329 | 4.75932 | 6 ft | 4 kts | 178° |
| 2026-05-08 08:03 | 52.31355 | 4.75930 | 6 ft | 4 kts | 177° |
| 2026-05-08 08:03 | 52.31382 | 4.75927 | 4 ft | 4 kts | 175° |
| 2026-05-08 08:03 | 52.31407 | 4.75924 | 5 ft | 4 kts | 167° |
| 2026-05-08 08:04 | 52.31429 | 4.75911 | 6 ft | 4 kts | 139° |
| 2026-05-08 08:04 | 52.31440 | 4.75886 | 7 ft | 4 kts | 100° |
| 2026-05-08 08:04 | 52.31441 | 4.75849 | 6 ft | 4 kts | 86° |
| 2026-05-08 08:04 | 52.31439 | 4.75805 | 5 ft | 4 kts | 86° |
| 2026-05-08 08:05 | 52.31438 | 4.75761 | 4 ft | 4 kts | 86° |
| 2026-05-08 08:05 | 52.31436 | 4.75717 | 4 ft | 4 kts | 86° |
| 2026-05-08 08:05 | 52.31435 | 4.75674 | 4 ft | 2 kts | 86° |
| 2026-05-08 08:05 | 52.31434 | 4.75669 | 4 ft | 7 kts | 86° |
| 2026-05-08 08:07 | 52.31435 | 4.75674 | 4 ft | 1 kts | 86° |
| 2026-05-08 08:08 | 52.31435 | 4.75695 | 4 ft | 2 kts | 86° |
| 2026-05-08 08:08 | 52.31437 | 4.75728 | 4 ft | 4 kts | 86° |
| 2026-05-08 08:08 | 52.31449 | 4.75770 | 4 ft | 5 kts | 48° |
| 2026-05-08 08:08 | 52.31482 | 4.75788 | 4 ft | 6 kts | 3° |
| 2026-05-08 08:09 | 52.31515 | 4.75752 | 4 ft | 6 kts | 296° |
| 2026-05-08 08:09 | 52.31521 | 4.75661 | 4 ft | 11 kts | 268° |
| 2026-05-08 08:09 | 52.31514 | 4.75514 | 4 ft | 14 kts | 267° |
| 2026-05-08 08:09 | 52.31509 | 4.75360 | 3 ft | 14 kts | 267° |
| 2026-05-08 08:10 | 52.31504 | 4.75205 | 4 ft | 14 kts | 266° |
| 2026-05-08 08:10 | 52.31499 | 4.75051 | 4 ft | 14 kts | 266° |
| 2026-05-08 08:10 | 52.31494 | 4.74896 | 4 ft | 14 kts | 266° |
| 2026-05-08 08:10 | 52.31489 | 4.74753 | 4 ft | 9 kts | 266° |
| 2026-05-08 08:11 | 52.31515 | 4.74670 | 4 ft | 9 kts | 339° |
| 2026-05-08 08:11 | 52.31580 | 4.74662 | 4 ft | 9 kts | 358° |
| 2026-05-08 08:11 | 52.31641 | 4.74686 | 4 ft | 9 kts | 36° |
| 2026-05-08 08:11 | 52.31666 | 4.74780 | 4 ft | 9 kts | 83° |
| 2026-05-08 08:12 | 52.31669 | 4.74836 | 3 ft | 0 kts | 86° |
| 2026-05-08 08:12 | 52.31669 | 4.74837 | 3 ft | 0 kts | 86° |
| 2026-05-08 08:12 | 52.31673 | 4.74964 | 1 ft | 32 kts | 86° |
| 2026-05-08 08:12 | 52.31702 | 4.75808 | 3 ft | 117 kts | 86° |
| 2026-05-08 08:13 | 52.31762 | 4.77596 | 9 ft | 195 kts | 87° |
| 2026-05-08 08:13 | 52.31845 | 4.79943 | 830 ft | 208 kts | 86° |
| 2026-05-08 08:13 | 52.31930 | 4.82250 | 2099 ft | 213 kts | 88° |
| 2026-05-08 08:13 | 52.31994 | 4.84759 | 2392 ft | 233 kts | 87° |
| 2026-05-08 08:14 | 52.31884 | 4.87409 | 2841 ft | 239 kts | 107° |
| 2026-05-08 08:14 | 52.31232 | 4.89911 | 3394 ft | 241 kts | 114° |
| 2026-05-08 08:14 | 52.30548 | 4.92448 | 3943 ft | 246 kts | 112° |
| 2026-05-08 08:14 | 52.29868 | 4.95034 | 4547 ft | 251 kts | 112° |
| 2026-05-08 08:15 | 52.29229 | 4.97700 | 5165 ft | 254 kts | 107° |
| 2026-05-08 08:15 | 52.28727 | 5.00523 | 5669 ft | 263 kts | 105° |
| 2026-05-08 08:15 | 52.28245 | 5.03447 | 6211 ft | 270 kts | 105° |
| 2026-05-08 08:15 | 52.27758 | 5.06385 | 6791 ft | 274 kts | 105° |
| 2026-05-08 08:16 | 52.27247 | 5.09417 | 7326 ft | 280 kts | 105° |
| 2026-05-08 08:16 | 52.26716 | 5.12513 | 7925 ft | 284 kts | 106° |
| 2026-05-08 08:16 | 52.26175 | 5.15637 | 8548 ft | 288 kts | 107° |
| 2026-05-08 08:16 | 52.25623 | 5.18799 | 9157 ft | 291 kts | 107° |
| 2026-05-08 08:17 | 52.25062 | 5.21993 | 9774 ft | 294 kts | 107° |
| 2026-05-08 08:17 | 52.24496 | 5.25217 | 10332 ft | 298 kts | 106° |
| 2026-05-08 08:17 | 52.24109 | 5.28608 | 10564 ft | 314 kts | 97° |
| 2026-05-08 08:17 | 52.23948 | 5.32213 | 10748 ft | 332 kts | 94° |
| 2026-05-08 08:18 | 52.23822 | 5.36080 | 10927 ft | 351 kts | 94° |
| 2026-05-08 08:18 | 52.23669 | 5.40139 | 11199 ft | 366 kts | 95° |
| 2026-05-08 08:18 | 52.23478 | 5.44313 | 11757 ft | 373 kts | 95° |
| 2026-05-08 08:18 | 52.23264 | 5.48567 | 12372 ft | 379 kts | 96° |
| 2026-05-08 08:19 | 52.23011 | 5.52852 | 13043 ft | 379 kts | 100° |
| 2026-05-08 08:19 | 52.22270 | 5.56990 | 13541 ft | 384 kts | 113° |
| 2026-05-08 08:19 | 52.21228 | 5.61037 | 14100 ft | 389 kts | 114° |
| 2026-05-08 08:19 | 52.20159 | 5.65133 | 14586 ft | 397 kts | 114° |
| 2026-05-08 08:20 | 52.19102 | 5.69249 | 15150 ft | 401 kts | 113° |
| 2026-05-08 08:20 | 52.18042 | 5.73462 | 15835 ft | 403 kts | 113° |
| 2026-05-08 08:20 | 52.16987 | 5.77717 | 16369 ft | 409 kts | 112° |
| 2026-05-08 08:20 | 52.15923 | 5.82043 | 16932 ft | 413 kts | 112° |
| 2026-05-08 08:21 | 52.14850 | 5.86412 | 17563 ft | 417 kts | 112° |
| 2026-05-08 08:21 | 52.13770 | 5.90814 | 18172 ft | 420 kts | 112° |
| 2026-05-08 08:21 | 52.12679 | 5.95246 | 18702 ft | 424 kts | 112° |
| 2026-05-08 08:21 | 52.11590 | 5.99664 | 19219 ft | 428 kts | 112° |
| 2026-05-08 08:22 | 52.10478 | 6.04156 | 19746 ft | 430 kts | 112° |
| 2026-05-08 08:22 | 52.09405 | 6.08711 | 20275 ft | 432 kts | 107° |
| 2026-05-08 08:22 | 52.08747 | 6.13508 | 20724 ft | 437 kts | 99° |
| 2026-05-08 08:22 | 52.08296 | 6.18417 | 21193 ft | 441 kts | 98° |
| 2026-05-08 08:23 | 52.07871 | 6.23374 | 21704 ft | 444 kts | 98° |
| 2026-05-08 08:23 | 52.07425 | 6.28352 | 22211 ft | 447 kts | 99° |
| 2026-05-08 08:23 | 52.06945 | 6.33356 | 22700 ft | 450 kts | 99° |